createdAt,value
2022-08-17T00:00:52.048Z,30.80
2022-08-17T00:03:23.486Z,30.85
2022-08-17T00:05:56.771Z,30.85
2022-08-17T00:08:31.240Z,30.60
2022-08-17T00:11:01.164Z,31.10
2022-08-17T00:13:35.268Z,30.92
2022-08-17T00:16:09.471Z,31.17
2022-08-17T00:19:00.382Z,31.18
2022-08-17T00:21:29.438Z,31.22
2022-08-17T00:24:18.754Z,31.41
2022-08-17T00:26:48.124Z,31.28
2022-08-17T00:29:20.024Z,31.37
2022-08-17T00:31:50.388Z,31.26
2022-08-17T00:34:19.924Z,31.19
2022-08-17T00:36:49.009Z,31.30
2022-08-17T00:39:18.105Z,31.48
2022-08-17T00:41:47.749Z,31.32
2022-08-17T00:44:17.273Z,31.30
2022-08-17T00:46:48.691Z,31.15
2022-08-17T00:49:20.618Z,30.97
2022-08-17T00:52:01.805Z,31.03
2022-08-17T00:54:41.664Z,31.02
2022-08-17T00:57:18.981Z,31.12
2022-08-17T01:00:02.405Z,30.74
2022-08-17T01:02:41.979Z,30.93
2022-08-17T01:05:25.938Z,30.73
2022-08-17T01:07:56.080Z,30.85
2022-08-17T01:10:59.551Z,30.99
2022-08-17T01:13:22.024Z,29.62
2022-08-17T01:16:03.335Z,30.30
2022-08-17T01:18:33.325Z,30.68
2022-08-17T01:21:12.001Z,30.16
2022-08-17T01:23:43.238Z,30.27
2022-08-17T01:26:12.304Z,30.67
2022-08-17T01:28:53.851Z,30.68
2022-08-17T01:31:29.234Z,30.23
2022-08-17T01:34:04.070Z,30.57
2022-08-17T01:36:33.512Z,29.51
2022-08-17T01:39:02.709Z,30.17
2022-08-17T01:41:31.912Z,30.26
2022-08-17T01:44:04.614Z,30.08
2022-08-17T01:46:36.996Z,29.83
2022-08-17T01:49:13.803Z,29.74
2022-08-17T01:51:42.851Z,29.54
2022-08-17T01:54:16.151Z,29.49
2022-08-17T01:56:48.980Z,29.67
2022-08-17T01:59:20.104Z,29.80
2022-08-17T02:01:49.445Z,29.60
2022-08-17T02:04:18.674Z,29.14
2022-08-17T02:06:53.257Z,29.38
2022-08-17T02:09:26.185Z,29.03
2022-08-17T02:12:37.991Z,28.87
2022-08-17T02:14:51.767Z,29.62
2022-08-17T02:17:20.817Z,29.33
2022-08-17T02:19:49.878Z,28.92
2022-08-17T02:22:19.174Z,29.05
2022-08-17T02:25:00.651Z,29.27
2022-08-17T02:27:30.959Z,28.93
2022-08-17T02:30:00.119Z,28.67
2022-08-17T02:32:32.327Z,27.82
2022-08-17T02:35:02.938Z,28.25
2022-08-17T02:37:32.319Z,27.46
2022-08-17T02:40:01.742Z,27.48
2022-08-17T02:42:36.820Z,27.03
2022-08-17T02:45:12.236Z,26.97
2022-08-17T02:47:42.763Z,26.49
2022-08-17T02:50:14.555Z,26.47
2022-08-17T02:52:45.733Z,26.23
2022-08-17T02:55:34.422Z,26.17
2022-08-17T02:58:04.576Z,26.25
2022-08-17T03:00:41.971Z,26.19
2022-08-17T03:03:14.579Z,25.86
2022-08-17T03:05:43.902Z,25.38
2022-08-17T03:08:13.726Z,25.51
2022-08-17T03:10:44.587Z,25.53
2022-08-17T03:13:15.542Z,25.30
2022-08-17T03:15:46.453Z,25.20
2022-08-17T03:18:25.315Z,25.26
2022-08-17T03:20:57.709Z,25.18
2022-08-17T03:23:34.843Z,25.21
2022-08-17T03:26:04.700Z,24.67
2022-08-17T03:28:49.950Z,24.60
2022-08-17T03:31:25.198Z,24.49
2022-08-17T03:33:54.343Z,24.43
2022-08-17T03:36:24.593Z,24.32
2022-08-17T03:38:53.786Z,24.42
2022-08-17T03:41:27.381Z,24.15
2022-08-17T03:44:08.609Z,24.22
2022-08-17T03:46:56.096Z,24.17
2022-08-17T03:49:43.634Z,23.95
2022-08-17T03:52:31.084Z,23.83
2022-08-17T03:55:18.523Z,23.69
2022-08-17T03:57:48.966Z,23.38
2022-08-17T04:00:19.225Z,23.58
2022-08-17T04:02:49.953Z,23.45
2022-08-17T04:05:19.303Z,23.28
2022-08-17T04:07:48.846Z,23.09
2022-08-17T04:10:24.705Z,22.92
2022-08-17T04:12:56.586Z,23.12
2022-08-17T04:15:27.106Z,23.19
2022-08-17T04:17:56.857Z,23.08
2022-08-17T04:20:28.051Z,22.95
2022-08-17T04:23:04.501Z,22.92
2022-08-17T04:25:36.168Z,22.83
2022-08-17T04:28:07.626Z,22.55
2022-08-17T04:30:46.129Z,22.51
2022-08-17T04:33:25.037Z,22.23
2022-08-17T04:36:01.310Z,22.03
2022-08-17T04:38:34.294Z,21.96
2022-08-17T04:41:22.438Z,22.23
2022-08-17T04:43:56.202Z,22.24
2022-08-17T04:46:36.615Z,22.26
2022-08-17T04:49:09.202Z,22.27
2022-08-17T04:51:56.160Z,22.15
2022-08-17T04:54:25.973Z,22.05
2022-08-17T04:56:54.952Z,22.08
2022-08-17T04:59:24.438Z,21.64
2022-08-17T05:01:53.777Z,21.70
2022-08-17T05:04:34.634Z,21.72
2022-08-17T05:07:05.392Z,21.57
2022-08-17T05:09:34.531Z,21.59
2022-08-17T05:12:04.159Z,21.70
2022-08-17T05:14:33.961Z,21.54
2022-08-17T05:17:04.562Z,21.41
2022-08-17T05:19:38.631Z,21.31
2022-08-17T05:22:07.776Z,21.25
2022-08-17T05:24:38.488Z,21.08
2022-08-17T05:27:16.784Z,21.03
2022-08-17T05:29:48.062Z,21.12
2022-08-17T05:32:37.772Z,20.90
2022-08-17T05:35:07.154Z,20.79
2022-08-17T05:37:36.219Z,20.87
2022-08-17T05:40:06.258Z,20.94
2022-08-17T05:42:35.345Z,20.73
2022-08-17T05:45:04.827Z,20.72
2022-08-17T05:47:33.996Z,20.65
2022-08-17T05:50:03.842Z,20.64
2022-08-17T05:52:42.189Z,20.56
2022-08-17T05:55:47.061Z,20.39
2022-08-17T05:58:27.192Z,20.52
2022-08-17T06:01:11.322Z,20.56
2022-08-17T06:03:51.193Z,20.43
2022-08-17T06:06:42.659Z,20.55
2022-08-17T06:09:28.867Z,20.53
2022-08-17T06:12:22.850Z,20.52
2022-08-17T06:15:13.724Z,20.52
2022-08-17T06:17:44.261Z,20.35
2022-08-17T06:20:16.980Z,20.12
2022-08-17T06:22:53.371Z,20.18
2022-08-17T06:25:34.927Z,20.14
2022-08-17T06:28:09.672Z,20.07
2022-08-17T06:30:59.863Z,20.14
2022-08-17T06:33:40.275Z,19.56
2022-08-17T06:36:14.592Z,19.93
2022-08-17T06:39:00.875Z,19.97
2022-08-17T06:41:50.381Z,19.86
2022-08-17T06:44:43.238Z,19.79
2022-08-17T06:47:50.608Z,19.94
2022-08-17T06:50:43.767Z,19.89
2022-08-17T06:53:30.347Z,20.01
2022-08-17T06:56:14.544Z,19.70
2022-08-17T06:58:45.787Z,19.68
2022-08-17T07:01:31.731Z,19.69
2022-08-17T07:04:12.404Z,19.73
2022-08-17T07:06:51.606Z,19.56
2022-08-17T07:09:29.604Z,19.63
2022-08-17T07:12:16.987Z,19.79
2022-08-17T07:15:08.982Z,19.75
2022-08-17T07:17:47.508Z,19.56
2022-08-17T07:20:26.203Z,19.73
2022-08-17T07:23:29.439Z,19.78
2022-08-17T07:26:07.631Z,19.71
2022-08-17T07:28:37.711Z,19.61
2022-08-17T07:31:07.832Z,19.73
2022-08-17T07:33:37.656Z,19.61
2022-08-17T07:36:29.578Z,19.57
2022-08-17T07:38:59.666Z,19.44
2022-08-17T07:41:53.334Z,19.41
2022-08-17T07:44:20.062Z,19.39
2022-08-17T07:47:10.724Z,19.27
2022-08-17T07:49:43.121Z,19.30
2022-08-17T07:52:51.099Z,19.18
2022-08-17T07:55:33.593Z,19.20
2022-08-17T07:58:02.900Z,19.07
2022-08-17T08:00:34.406Z,19.01
2022-08-17T08:03:26.228Z,18.97
2022-08-17T08:06:03.244Z,18.91
2022-08-17T08:08:38.626Z,18.93
2022-08-17T08:11:16.016Z,18.95
2022-08-17T08:13:46.765Z,18.98
2022-08-17T08:16:20.730Z,18.95
2022-08-17T08:18:54.424Z,18.80
2022-08-17T08:21:59.882Z,18.71
2022-08-17T08:24:57.429Z,18.57
2022-08-17T08:27:39.345Z,18.64
2022-08-17T08:30:15.255Z,18.60
2022-08-17T08:33:29.657Z,18.68
2022-08-17T08:36:10.315Z,18.54
2022-08-17T08:39:23.948Z,18.52
2022-08-17T08:42:17.717Z,18.45
2022-08-17T08:45:04.145Z,18.36
2022-08-17T08:47:35.444Z,18.39
2022-08-17T08:50:37.829Z,18.43
2022-08-17T08:53:15.675Z,18.36
2022-08-17T08:56:03.180Z,18.24
2022-08-17T08:59:08.511Z,18.12
2022-08-17T09:01:53.198Z,18.02
2022-08-17T09:05:10.601Z,18.00
2022-08-17T09:08:11.912Z,17.98
2022-08-17T09:10:57.680Z,17.95
2022-08-17T09:13:44.825Z,18.00
2022-08-17T09:16:17.336Z,17.97
2022-08-17T09:19:00.743Z,17.92
2022-08-17T09:21:48.698Z,17.83
2022-08-17T09:24:36.835Z,17.84
2022-08-17T09:27:14.298Z,17.84
2022-08-17T09:29:49.849Z,17.78
2022-08-17T09:32:23.300Z,17.77
2022-08-17T09:35:00.835Z,17.80
2022-08-17T09:37:55.684Z,17.76
2022-08-17T09:40:26.838Z,17.76
2022-08-17T09:43:07.449Z,17.76
2022-08-17T09:46:24.976Z,17.74
2022-08-17T09:49:12.653Z,17.72
2022-08-17T09:51:58.242Z,17.67
2022-08-17T09:54:48.102Z,17.60
2022-08-17T09:57:30.416Z,17.52
2022-08-17T10:00:19.559Z,17.48
2022-08-17T10:03:30.122Z,17.29
2022-08-17T10:06:21.959Z,17.11
2022-08-17T10:08:53.258Z,17.22
2022-08-17T10:11:59.886Z,17.37
2022-08-17T10:14:37.054Z,17.39
2022-08-17T10:17:30.362Z,17.36
2022-08-17T10:20:18.111Z,17.33
2022-08-17T10:23:12.500Z,17.29
2022-08-17T10:26:05.678Z,17.13
2022-08-17T10:28:45.930Z,17.08
2022-08-17T10:31:34.600Z,17.11
2022-08-17T10:34:29.634Z,17.12
2022-08-17T10:37:21.202Z,17.10
2022-08-17T10:39:54.852Z,17.06
2022-08-17T10:42:30.776Z,17.03
2022-08-17T10:45:18.123Z,16.98
2022-08-17T10:48:06.735Z,16.98
2022-08-17T10:50:58.448Z,17.05
2022-08-17T10:53:33.659Z,17.04
2022-08-17T10:56:15.253Z,17.04
2022-08-17T10:58:59.119Z,17.02
2022-08-17T11:01:34.660Z,17.02
2022-08-17T11:04:42.211Z,17.03
2022-08-17T11:07:37.529Z,16.92
2022-08-17T11:10:19.737Z,16.85
2022-08-17T11:13:16.132Z,16.88
2022-08-17T11:15:48.259Z,16.85
2022-08-17T11:18:47.740Z,16.89
2022-08-17T11:21:35.694Z,16.87
2022-08-17T11:24:45.494Z,16.81
2022-08-17T11:27:35.908Z,16.70
2022-08-17T11:30:36.782Z,16.74
2022-08-17T11:33:31.797Z,16.71
2022-08-17T11:36:16.065Z,16.73
2022-08-17T11:39:03.089Z,16.75
2022-08-17T11:41:40.418Z,16.69
2022-08-17T11:44:27.625Z,16.69
2022-08-17T11:47:24.304Z,16.75
2022-08-17T11:50:34.298Z,16.64
2022-08-17T11:53:03.594Z,16.55
2022-08-17T11:55:37.212Z,16.51
2022-08-17T11:58:38.320Z,16.51
2022-08-17T12:01:33.554Z,16.44
2022-08-17T12:04:23.569Z,16.39
2022-08-17T12:07:19.269Z,16.38
2022-08-17T12:09:51.559Z,16.41
2022-08-17T12:12:36.740Z,16.28
2022-08-17T12:15:10.975Z,16.29
2022-08-17T12:17:43.021Z,16.45
2022-08-17T12:20:28.993Z,16.41
2022-08-17T12:23:23.471Z,16.42
2022-08-17T12:25:57.556Z,16.35
2022-08-17T12:28:33.909Z,16.34
2022-08-17T12:31:08.752Z,16.37
2022-08-17T12:33:43.589Z,16.29
2022-08-17T12:36:16.643Z,16.27
2022-08-17T12:39:14.058Z,16.27
2022-08-17T12:41:47.656Z,16.14
2022-08-17T12:44:23.057Z,16.08
2022-08-17T12:47:01.374Z,16.09
2022-08-17T12:49:32.263Z,16.18
2022-08-17T12:52:18.675Z,16.12
2022-08-17T12:55:13.550Z,16.10
2022-08-17T12:57:52.320Z,16.01
2022-08-17T13:00:32.469Z,15.95
2022-08-17T13:03:08.677Z,15.95
2022-08-17T13:05:42.054Z,15.96
2022-08-17T13:08:20.706Z,15.89
2022-08-17T13:11:02.649Z,15.86
2022-08-17T13:13:34.652Z,15.95
2022-08-17T13:16:05.860Z,16.00
2022-08-17T13:18:40.590Z,16.11
2022-08-17T13:21:31.389Z,16.13
2022-08-17T13:24:18.470Z,16.10
2022-08-17T13:26:49.335Z,16.16
2022-08-17T13:29:29.891Z,16.22
2022-08-17T13:32:36.944Z,16.23
2022-08-17T13:35:39.593Z,16.05
2022-08-17T13:38:35.600Z,16.10
2022-08-17T13:41:08.312Z,16.20
2022-08-17T13:43:50.427Z,16.20
2022-08-17T13:46:27.475Z,16.18
2022-08-17T13:49:06.547Z,16.19
2022-08-17T13:51:47.191Z,16.28
2022-08-17T13:54:36.653Z,16.32
2022-08-17T13:57:18.411Z,16.45
2022-08-17T13:59:54.907Z,16.46
2022-08-17T14:02:28.423Z,16.42
2022-08-17T14:04:59.273Z,16.31
2022-08-17T14:07:38.878Z,16.31
2022-08-17T14:10:16.985Z,16.30
2022-08-17T14:12:46.747Z,16.32
2022-08-17T14:15:21.398Z,16.24
2022-08-17T14:17:51.801Z,16.29
2022-08-17T14:20:23.575Z,16.24
2022-08-17T14:22:55.500Z,16.17
2022-08-17T14:25:28.685Z,16.14
2022-08-17T14:27:58.160Z,16.32
2022-08-17T14:30:30.181Z,16.42
2022-08-17T14:33:00.649Z,16.46
2022-08-17T14:35:30.454Z,16.52
2022-08-17T14:38:00.123Z,16.54
2022-08-17T14:40:30.159Z,16.44
2022-08-17T14:42:59.632Z,16.26
2022-08-17T14:45:32.498Z,16.54
2022-08-17T14:48:05.060Z,16.70
2022-08-17T14:50:35.935Z,16.65
2022-08-17T14:53:07.467Z,16.68
2022-08-17T14:55:40.659Z,16.65
2022-08-17T14:58:10.618Z,16.54
2022-08-17T15:00:41.720Z,16.52
2022-08-17T15:03:12.384Z,16.52
2022-08-17T15:05:41.954Z,16.72
2022-08-17T15:08:11.145Z,16.80
2022-08-17T15:10:40.269Z,16.85
2022-08-17T15:13:24.658Z,16.84
2022-08-17T15:15:55.047Z,16.72
2022-08-17T15:18:24.146Z,16.74
2022-08-17T15:20:53.570Z,16.69
2022-08-17T15:23:25.028Z,16.81
2022-08-17T15:25:55.714Z,16.98
2022-08-17T15:28:25.257Z,17.11
2022-08-17T15:30:55.073Z,17.17
2022-08-17T15:33:32.885Z,17.27
2022-08-17T15:36:07.282Z,17.31
2022-08-17T15:38:40.210Z,17.36
2022-08-17T15:41:15.988Z,17.21
2022-08-17T15:43:47.083Z,17.32
2022-08-17T15:46:19.568Z,17.50
2022-08-17T15:48:51.589Z,17.59
2022-08-17T15:51:24.886Z,17.69
2022-08-17T15:53:59.302Z,17.76
2022-08-17T15:56:34.193Z,17.84
2022-08-17T15:59:03.549Z,17.96
2022-08-17T16:02:16.314Z,17.88
2022-08-17T16:04:29.792Z,17.96
2022-08-17T16:07:00.723Z,18.07
2022-08-17T16:09:30.168Z,18.17
2022-08-17T16:12:08.825Z,18.30
2022-08-17T16:14:37.913Z,18.41
2022-08-17T16:17:39.003Z,18.28
2022-08-17T16:19:57.327Z,18.58
2022-08-17T16:22:38.476Z,18.64
2022-08-17T16:25:17.828Z,18.86
2022-08-17T16:27:49.497Z,18.78
2022-08-17T16:30:18.669Z,18.77
2022-08-17T16:32:49.950Z,18.92
2022-08-17T16:35:21.367Z,18.95
2022-08-17T16:37:50.608Z,18.97
2022-08-17T16:40:20.993Z,19.01
2022-08-17T16:42:51.055Z,19.56
2022-08-17T16:45:24.323Z,19.68
2022-08-17T16:47:54.646Z,19.59
2022-08-17T16:50:25.779Z,19.95
2022-08-17T16:53:11.413Z,20.12
2022-08-17T16:55:40.726Z,20.11
2022-08-17T16:58:10.119Z,20.25
2022-08-17T17:00:39.892Z,20.16
2022-08-17T17:03:23.267Z,20.30
2022-08-17T17:05:58.291Z,20.44
2022-08-17T17:08:44.071Z,20.48
2022-08-17T17:11:34.952Z,20.53
2022-08-17T17:14:16.382Z,20.68
2022-08-17T17:17:04.619Z,20.96
2022-08-17T17:19:38.504Z,21.05
2022-08-17T17:22:27.330Z,21.33
2022-08-17T17:25:27.916Z,21.38
2022-08-17T17:28:26.393Z,21.64
2022-08-17T17:31:07.068Z,21.78
2022-08-17T17:33:49.898Z,21.81
2022-08-17T17:36:42.013Z,22.01
2022-08-17T17:39:18.993Z,22.04
2022-08-17T17:41:50.345Z,22.23
2022-08-17T17:44:25.547Z,22.40
2022-08-17T17:47:02.973Z,22.61
2022-08-17T17:49:37.257Z,22.75
2022-08-17T17:52:19.579Z,22.77
2022-08-17T17:55:05.559Z,22.92
2022-08-17T17:58:20.533Z,23.03
2022-08-17T18:01:13.518Z,23.38
2022-08-17T18:03:58.203Z,23.45
2022-08-17T18:06:37.614Z,23.70
2022-08-17T18:09:19.438Z,23.89
2022-08-17T18:12:32.473Z,23.95
2022-08-17T18:15:04.781Z,24.09
2022-08-17T18:17:34.313Z,24.32
2022-08-17T18:20:05.616Z,24.42
2022-08-17T18:22:40.246Z,24.62
2022-08-17T18:25:44.088Z,24.89
2022-08-17T18:28:26.927Z,24.85
2022-08-17T18:31:18.563Z,24.96
2022-08-17T18:33:50.590Z,25.25
2022-08-17T18:36:35.038Z,25.36
2022-08-17T18:39:19.948Z,25.48
2022-08-17T18:41:55.592Z,25.60
2022-08-17T18:44:38.316Z,25.65
2022-08-17T18:47:21.289Z,25.72
2022-08-17T18:50:20.555Z,25.88
2022-08-17T18:52:49.851Z,26.19
2022-08-17T18:55:23.192Z,26.14
2022-08-17T18:57:56.584Z,26.57
2022-08-17T19:00:31.921Z,26.90
2022-08-17T19:03:25.811Z,26.98
2022-08-17T19:05:58.498Z,26.86
2022-08-17T19:08:30.546Z,27.32
2022-08-17T19:11:24.932Z,27.14
2022-08-17T19:13:56.807Z,27.11
2022-08-17T19:16:35.564Z,27.07
2022-08-17T19:19:20.880Z,27.02
2022-08-17T19:21:55.933Z,27.01
2022-08-17T19:24:27.850Z,27.08
2022-08-17T19:27:19.065Z,27.27
2022-08-17T19:30:08.405Z,27.64
2022-08-17T19:32:38.003Z,27.58
2022-08-17T19:35:13.708Z,27.72
2022-08-17T19:38:12.750Z,27.87
2022-08-17T19:41:12.463Z,27.88
2022-08-17T19:44:00.136Z,28.00
2022-08-17T19:46:50.025Z,28.03
2022-08-17T19:49:33.161Z,28.03
2022-08-17T19:52:29.246Z,28.31
2022-08-17T19:55:05.972Z,28.38
2022-08-17T19:57:54.134Z,28.52
2022-08-17T20:00:23.388Z,28.49
2022-08-17T20:03:07.685Z,28.78
2022-08-17T20:06:08.518Z,28.73
2022-08-17T20:08:35.590Z,28.79
2022-08-17T20:11:12.691Z,28.87
2022-08-17T20:13:46.108Z,28.90
2022-08-17T20:16:15.303Z,29.10
2022-08-17T20:19:01.832Z,29.17
2022-08-17T20:21:54.928Z,29.24
2022-08-17T20:24:50.050Z,29.40
2022-08-17T20:27:22.219Z,29.59
2022-08-17T20:30:14.182Z,29.78
2022-08-17T20:33:01.397Z,29.99
2022-08-17T20:35:39.489Z,30.18
2022-08-17T20:38:34.495Z,30.23
2022-08-17T20:41:18.968Z,30.16
2022-08-17T20:43:59.168Z,30.28
2022-08-17T20:46:53.029Z,30.46
2022-08-17T20:49:36.818Z,30.83
2022-08-17T20:52:11.215Z,30.46
2022-08-17T20:54:56.761Z,30.64
2022-08-17T20:57:37.929Z,30.91
2022-08-17T21:00:30.173Z,31.02
2022-08-17T21:03:49.139Z,30.96
2022-08-17T21:06:23.420Z,31.21
2022-08-17T21:09:16.547Z,31.02
2022-08-17T21:12:05.572Z,31.39
2022-08-17T21:15:04.221Z,31.49
2022-08-17T21:17:53.516Z,31.54
2022-08-17T21:20:40.580Z,31.78
2022-08-17T21:23:20.423Z,32.05
2022-08-17T21:26:18.344Z,31.69
2022-08-17T21:29:00.578Z,31.89
2022-08-17T21:31:40.965Z,32.02
2022-08-17T21:34:27.495Z,32.03
2022-08-17T21:37:16.885Z,32.04
2022-08-17T21:39:52.218Z,32.22
2022-08-17T21:42:34.848Z,32.34
2022-08-17T21:45:22.474Z,32.04
2022-08-17T21:48:08.054Z,32.32
2022-08-17T21:50:38.550Z,32.85
2022-08-17T21:53:09.887Z,33.48
2022-08-17T21:55:39.385Z,33.43
2022-08-17T21:58:29.844Z,33.31
2022-08-17T22:01:21.854Z,33.35
2022-08-17T22:04:04.956Z,33.21
2022-08-17T22:06:41.248Z,33.18
2022-08-17T22:09:13.537Z,33.48
2022-08-17T22:12:12.271Z,33.16
2022-08-17T22:14:52.576Z,33.45
2022-08-17T22:17:37.304Z,34.04
2022-08-17T22:20:17.736Z,33.87
2022-08-17T22:23:04.930Z,34.00
2022-08-17T22:25:37.921Z,33.69
2022-08-17T22:28:10.017Z,33.69
2022-08-17T22:30:44.668Z,33.81
2022-08-17T22:33:38.445Z,34.04
2022-08-17T22:36:34.661Z,33.73
2022-08-17T22:39:09.838Z,34.14
2022-08-17T22:42:01.453Z,33.96
2022-08-17T22:44:38.633Z,33.75
2022-08-17T22:47:19.932Z,33.78
2022-08-17T22:49:53.124Z,33.83
2022-08-17T22:53:02.255Z,33.47
2022-08-17T22:55:52.866Z,33.59
2022-08-17T22:58:43.900Z,33.90
2022-08-17T23:01:32.537Z,34.10
2022-08-17T23:04:25.795Z,34.05
2022-08-17T23:06:55.331Z,34.18
2022-08-17T23:09:24.679Z,33.93
2022-08-17T23:11:59.636Z,33.70
2022-08-17T23:14:32.276Z,34.04
2022-08-17T23:17:02.869Z,34.50
2022-08-17T23:19:32.619Z,34.14
2022-08-17T23:22:05.159Z,34.02
2022-08-17T23:24:41.834Z,33.88
2022-08-17T23:27:11.341Z,33.81
2022-08-17T23:29:42.856Z,34.01
2022-08-17T23:32:15.894Z,34.53
2022-08-17T23:34:47.900Z,34.17
2022-08-17T23:37:19.032Z,34.29
2022-08-17T23:39:48.418Z,34.04
2022-08-17T23:42:22.735Z,33.96
2022-08-17T23:44:51.912Z,34.01
2022-08-17T23:47:22.331Z,33.89
2022-08-17T23:49:54.120Z,33.91
2022-08-17T23:52:25.315Z,33.94
2022-08-17T23:54:58.407Z,34.02
2022-08-17T23:57:33.490Z,34.03
